createdAt,value
2017-11-24T00:02:25.695Z,2.80
2017-11-24T00:04:51.938Z,2.50
2017-11-24T00:07:18.902Z,3.00
2017-11-24T00:09:45.144Z,3.00
2017-11-24T00:12:11.401Z,2.90
2017-11-24T00:14:37.587Z,3.50
2017-11-24T00:17:04.617Z,2.90
2017-11-24T00:19:31.626Z,3.10
2017-11-24T00:21:57.993Z,3.30
2017-11-24T00:24:24.926Z,3.10
2017-11-24T00:26:51.131Z,3.67
2017-11-24T00:29:17.342Z,3.40
2017-11-24T00:31:43.661Z,3.50
2017-11-24T00:34:09.982Z,2.73
2017-11-24T00:36:36.260Z,3.20
2017-11-24T00:39:03.208Z,3.30
2017-11-24T00:41:29.362Z,3.30
2017-11-24T00:43:55.665Z,2.80
2017-11-24T00:46:21.928Z,3.50
2017-11-24T00:48:48.198Z,3.17
2017-11-24T00:51:14.415Z,3.00
2017-11-24T00:53:40.545Z,3.40
2017-11-24T00:56:06.775Z,3.27
2017-11-24T00:58:32.993Z,3.10
2017-11-24T01:00:59.268Z,3.20
2017-11-24T01:03:26.165Z,2.90
2017-11-24T01:05:52.384Z,3.47
2017-11-24T01:08:18.630Z,3.50
2017-11-24T01:10:44.880Z,3.50
2017-11-24T01:13:11.021Z,3.80
2017-11-24T01:15:38.028Z,3.47
2017-11-24T01:18:04.263Z,3.57
2017-11-24T01:20:30.529Z,3.60
2017-11-24T01:22:56.691Z,3.60
2017-11-24T01:25:22.872Z,3.40
2017-11-24T01:27:49.834Z,3.27
2017-11-24T01:30:16.066Z,4.23
2017-11-24T01:32:42.225Z,3.20
2017-11-24T01:35:08.447Z,3.47
2017-11-24T01:37:34.740Z,3.63
2017-11-24T01:40:00.911Z,3.70
2017-11-24T01:42:27.152Z,3.67
2017-11-24T01:44:53.443Z,3.30
2017-11-24T01:47:19.583Z,2.77
2017-11-24T01:49:45.845Z,3.23
2017-11-24T01:52:12.001Z,3.30
2017-11-24T01:54:38.117Z,3.33
2017-11-24T01:57:04.265Z,2.93
2017-11-24T01:59:30.438Z,2.80
2017-11-24T02:01:56.716Z,3.53
2017-11-24T02:04:22.857Z,3.13
2017-11-24T02:06:48.972Z,3.00
2017-11-24T02:09:15.188Z,2.83
2017-11-24T02:11:41.429Z,2.90
2017-11-24T02:14:07.563Z,3.00
2017-11-24T02:16:33.817Z,3.00
2017-11-24T02:19:00.142Z,3.70
2017-11-24T02:21:26.349Z,3.20
2017-11-24T02:23:52.551Z,3.50
2017-11-24T02:26:18.696Z,2.90
2017-11-24T02:28:44.911Z,3.33
2017-11-24T02:31:11.072Z,3.80
2017-11-24T02:33:37.176Z,3.67
2017-11-24T02:36:03.389Z,2.97
2017-11-24T02:38:29.596Z,3.40
2017-11-24T02:40:55.788Z,2.93
2017-11-24T02:43:22.675Z,2.67
2017-11-24T02:45:48.994Z,3.50
2017-11-24T02:48:15.168Z,3.70
2017-11-24T02:50:41.318Z,3.20
2017-11-24T02:53:08.201Z,3.40
2017-11-24T02:55:34.403Z,3.83
2017-11-24T02:58:01.290Z,4.13
2017-11-24T03:00:27.449Z,3.70
2017-11-24T03:02:53.616Z,3.60
2017-11-24T03:05:19.753Z,3.20
2017-11-24T03:07:45.953Z,4.23
2017-11-24T03:10:12.914Z,3.97
2017-11-24T03:12:39.033Z,4.30
2017-11-24T03:15:05.242Z,2.97
2017-11-24T03:17:32.144Z,3.23
2017-11-24T03:19:58.309Z,3.70
2017-11-24T03:22:25.308Z,3.63
2017-11-24T03:24:51.551Z,3.90
2017-11-24T03:27:17.747Z,3.50
2017-11-24T03:29:43.905Z,3.87
2017-11-24T03:32:10.176Z,3.80
2017-11-24T03:34:36.349Z,3.57
2017-11-24T03:37:02.582Z,3.70
2017-11-24T03:39:28.694Z,3.67
2017-11-24T03:41:54.975Z,4.20
2017-11-24T03:44:21.157Z,3.60
2017-11-24T03:46:47.305Z,4.20
2017-11-24T03:49:13.527Z,4.07
2017-11-24T03:51:40.384Z,3.77
2017-11-24T03:54:07.311Z,3.47
2017-11-24T03:56:33.431Z,3.80
2017-11-24T03:58:59.677Z,3.73
2017-11-24T04:01:26.752Z,3.03
2017-11-24T04:03:53.014Z,3.50
2017-11-24T04:06:19.493Z,3.67
2017-11-24T04:08:45.762Z,3.37
2017-11-24T04:11:12.059Z,3.00
2017-11-24T04:13:38.200Z,3.47
2017-11-24T04:16:04.399Z,3.43
2017-11-24T04:18:31.438Z,3.27
2017-11-24T04:20:58.303Z,2.87
2017-11-24T04:23:24.500Z,2.83
2017-11-24T04:25:51.425Z,3.20
2017-11-24T04:28:17.560Z,3.00
2017-11-24T04:30:43.815Z,3.43
2017-11-24T04:33:10.076Z,2.90
2017-11-24T04:35:36.290Z,2.93
2017-11-24T04:38:02.468Z,2.97
2017-11-24T04:40:28.650Z,3.57
2017-11-24T04:42:54.950Z,3.27
2017-11-24T04:45:21.095Z,2.87
2017-11-24T04:47:47.307Z,3.33
2017-11-24T04:50:13.582Z,3.07
2017-11-24T04:52:39.783Z,2.70
2017-11-24T04:55:06.041Z,2.50
2017-11-24T04:57:32.467Z,3.10
2017-11-24T04:59:58.697Z,3.20
2017-11-24T05:02:24.917Z,3.33
2017-11-24T05:04:51.150Z,2.63
2017-11-24T05:07:17.496Z,3.07
2017-11-24T05:09:43.892Z,2.70
2017-11-24T05:12:10.087Z,2.87
2017-11-24T05:14:36.471Z,2.80
2017-11-24T05:17:02.813Z,2.70
2017-11-24T05:19:29.010Z,2.93
2017-11-24T05:21:55.206Z,2.70
2017-11-24T05:24:21.611Z,3.30
2017-11-24T05:26:48.618Z,3.20
2017-11-24T05:29:14.866Z,2.70
2017-11-24T05:31:41.093Z,3.33
2017-11-24T05:34:07.271Z,2.87
2017-11-24T05:36:33.540Z,2.97
2017-11-24T05:38:59.686Z,3.20
2017-11-24T05:41:26.705Z,2.50
2017-11-24T05:43:53.042Z,3.23
2017-11-24T05:46:19.198Z,3.97
2017-11-24T05:48:46.108Z,3.40
2017-11-24T05:51:12.328Z,2.97
2017-11-24T05:53:38.585Z,3.97
2017-11-24T05:56:05.519Z,3.67
2017-11-24T05:58:31.652Z,5.80
2017-11-24T06:00:58.609Z,4.80
2017-11-24T06:03:25.553Z,5.20
2017-11-24T06:05:52.491Z,3.50
2017-11-24T06:08:19.452Z,4.30
2017-11-24T06:10:45.606Z,3.70
2017-11-24T06:13:11.857Z,2.87
2017-11-24T06:15:37.959Z,3.30
2017-11-24T06:18:04.315Z,3.47
2017-11-24T06:20:30.488Z,4.27
2017-11-24T06:22:56.663Z,3.60
2017-11-24T06:25:22.875Z,4.20
2017-11-24T06:27:49.155Z,2.37
2017-11-24T06:30:16.147Z,3.77
2017-11-24T06:32:43.156Z,3.00
2017-11-24T06:35:09.338Z,3.63
2017-11-24T06:37:35.524Z,3.33
2017-11-24T06:40:01.785Z,3.50
2017-11-24T06:42:27.917Z,2.90
2017-11-24T06:44:54.103Z,3.17
2017-11-24T06:47:20.304Z,3.20
2017-11-24T06:49:47.309Z,2.37
2017-11-24T06:52:13.484Z,2.50
2017-11-24T06:54:39.666Z,2.83
2017-11-24T06:57:05.826Z,2.40
2017-11-24T06:59:32.892Z,2.40
2017-11-24T07:01:59.176Z,2.43
2017-11-24T07:04:25.305Z,3.23
2017-11-24T07:06:51.554Z,5.87
2017-11-24T07:09:18.621Z,5.60
2017-11-24T07:11:44.875Z,5.13
2017-11-24T07:14:11.076Z,5.60
2017-11-24T07:16:37.279Z,6.00
2017-11-24T07:19:04.254Z,3.40
2017-11-24T07:21:30.491Z,4.30
2017-11-24T07:23:56.805Z,3.13
2017-11-24T07:26:22.938Z,2.93
2017-11-24T07:28:49.114Z,2.97
2017-11-24T07:31:15.340Z,3.07
2017-11-24T07:33:42.413Z,3.10
2017-11-24T07:36:08.635Z,3.30
2017-11-24T07:38:34.868Z,2.97
2017-11-24T07:41:01.178Z,2.80
2017-11-24T07:43:28.188Z,2.90
2017-11-24T07:45:54.451Z,3.13
2017-11-24T07:48:21.353Z,3.80
2017-11-24T07:50:47.547Z,3.70
2017-11-24T07:53:13.718Z,3.97
2017-11-24T07:55:40.077Z,3.07
2017-11-24T07:58:06.977Z,3.13
2017-11-24T08:00:33.123Z,3.27
2017-11-24T08:02:59.580Z,3.00
2017-11-24T08:05:26.521Z,2.93
2017-11-24T08:07:53.541Z,3.10
2017-11-24T08:10:19.826Z,4.87
2017-11-24T08:12:46.126Z,5.50
2017-11-24T08:15:13.031Z,5.17
2017-11-24T08:17:39.192Z,3.57
2017-11-24T08:20:06.250Z,3.43
2017-11-24T08:22:33.159Z,3.60
2017-11-24T08:24:59.388Z,3.43
2017-11-24T08:27:25.649Z,3.67
2017-11-24T08:29:51.843Z,3.03
2017-11-24T08:32:18.144Z,3.23
2017-11-24T08:34:45.069Z,3.37
2017-11-24T08:37:11.442Z,3.37
2017-11-24T08:39:37.797Z,3.70
2017-11-24T08:42:04.729Z,3.57
2017-11-24T08:44:30.872Z,3.03
2017-11-24T08:47:04.103Z,3.10
2017-11-24T08:49:36.331Z,3.17
2017-11-24T08:52:03.239Z,3.20
2017-11-24T08:54:29.385Z,3.10
2017-11-24T08:56:55.577Z,3.07
2017-11-24T08:59:21.802Z,3.20
2017-11-24T09:01:48.062Z,3.57
2017-11-24T09:04:15.015Z,3.03
2017-11-24T09:06:41.960Z,3.10
2017-11-24T09:09:09.208Z,3.13
2017-11-24T09:11:36.127Z,2.77
2017-11-24T09:14:03.771Z,2.73
2017-11-24T09:16:30.124Z,3.30
2017-11-24T09:18:56.359Z,2.93
2017-11-24T09:21:22.701Z,2.90
2017-11-24T09:23:49.706Z,3.47
2017-11-24T09:26:15.903Z,2.97
2017-11-24T09:28:42.190Z,3.13
2017-11-24T09:31:08.399Z,4.10
2017-11-24T09:33:34.733Z,3.27
2017-11-24T09:36:00.935Z,3.30
2017-11-24T09:38:27.259Z,2.87
2017-11-24T09:40:53.565Z,3.53
2017-11-24T09:43:19.812Z,3.43
2017-11-24T09:45:45.998Z,2.97
2017-11-24T09:48:12.984Z,2.83
2017-11-24T09:50:39.200Z,3.00
2017-11-24T09:53:05.419Z,3.23
2017-11-24T09:55:31.652Z,3.20
2017-11-24T09:57:57.941Z,3.13
2017-11-24T10:00:24.930Z,3.50
2017-11-24T10:02:51.856Z,3.30
2017-11-24T10:05:18.052Z,2.93
2017-11-24T10:07:44.313Z,2.73
2017-11-24T10:10:10.542Z,3.07
2017-11-24T10:12:36.836Z,3.60
2017-11-24T10:15:03.039Z,3.53
2017-11-24T10:17:29.309Z,2.70
2017-11-24T10:19:56.369Z,2.70
2017-11-24T10:22:40.523Z,3.40
2017-11-24T10:25:06.770Z,2.90
2017-11-24T10:27:32.966Z,3.13
2017-11-24T10:29:59.156Z,3.10
2017-11-24T10:32:25.325Z,2.90
2017-11-24T10:34:51.441Z,3.07
2017-11-24T10:37:17.712Z,3.20
2017-11-24T10:39:44.040Z,3.60
2017-11-24T10:42:10.232Z,3.10
2017-11-24T10:44:36.349Z,2.87
2017-11-24T10:47:02.533Z,2.90
2017-11-24T10:49:28.636Z,2.57
2017-11-24T10:51:54.814Z,2.90
2017-11-24T10:54:21.710Z,2.90
2017-11-24T10:56:47.880Z,3.23
2017-11-24T10:59:14.827Z,2.90
2017-11-24T11:01:41.823Z,2.80
2017-11-24T11:04:08.076Z,2.80
2017-11-24T11:06:34.282Z,2.93
2017-11-24T11:09:00.534Z,3.10
2017-11-24T11:11:26.716Z,2.60
2017-11-24T11:13:53.183Z,2.90
2017-11-24T11:16:19.308Z,2.90
2017-11-24T11:18:45.604Z,2.90
2017-11-24T11:21:11.893Z,2.53
2017-11-24T11:23:38.847Z,3.00
2017-11-24T11:26:05.812Z,3.00
2017-11-24T11:28:32.076Z,2.83
2017-11-24T11:30:58.313Z,2.93
2017-11-24T11:33:24.542Z,3.00
2017-11-24T11:35:50.889Z,3.17
2017-11-24T11:38:17.932Z,3.10
2017-11-24T11:40:44.845Z,3.20
2017-11-24T11:43:11.091Z,2.77
2017-11-24T11:45:37.401Z,2.87
2017-11-24T11:48:03.641Z,2.63
2017-11-24T11:50:29.955Z,3.00
2017-11-24T11:52:56.275Z,3.20
2017-11-24T11:55:22.486Z,2.80
2017-11-24T11:57:48.777Z,3.50
2017-11-24T12:00:15.746Z,3.20
2017-11-24T12:02:42.009Z,2.73
2017-11-24T12:05:08.212Z,2.43
2017-11-24T12:07:34.430Z,3.30
2017-11-24T12:10:00.670Z,3.27
2017-11-24T12:12:27.000Z,3.50
2017-11-24T12:14:53.134Z,3.10
2017-11-24T12:17:19.361Z,2.87
2017-11-24T12:19:45.579Z,3.40
2017-11-24T12:22:11.734Z,2.90
2017-11-24T12:24:38.000Z,3.33
2017-11-24T12:27:04.961Z,3.00
2017-11-24T12:29:31.339Z,2.80
2017-11-24T12:31:57.534Z,3.00
2017-11-24T12:34:23.675Z,2.70
2017-11-24T12:36:49.971Z,3.00
2017-11-24T12:39:16.137Z,3.27
2017-11-24T12:41:42.348Z,2.80
2017-11-24T12:44:08.573Z,3.13
2017-11-24T12:46:34.795Z,2.90
2017-11-24T12:49:00.972Z,2.93
2017-11-24T12:51:27.938Z,2.80
2017-11-24T12:53:54.952Z,2.90
2017-11-24T12:56:21.147Z,3.10
2017-11-24T12:58:47.391Z,2.50
2017-11-24T13:01:13.583Z,2.17
2017-11-24T13:03:39.782Z,2.93
2017-11-24T13:06:06.739Z,2.70
2017-11-24T13:08:32.946Z,2.80
2017-11-24T13:10:59.915Z,2.57
2017-11-24T13:13:26.064Z,3.13
2017-11-24T13:15:52.369Z,2.53
2017-11-24T13:18:18.723Z,2.70
2017-11-24T13:20:44.967Z,2.70
2017-11-24T13:23:11.313Z,3.00
2017-11-24T13:25:37.502Z,2.40
2017-11-24T13:28:03.759Z,2.77
2017-11-24T13:30:30.071Z,2.30
2017-11-24T13:32:57.065Z,2.67
2017-11-24T13:35:23.998Z,2.40
2017-11-24T13:37:50.192Z,3.07
2017-11-24T13:40:16.383Z,2.47
2017-11-24T13:42:42.630Z,2.37
2017-11-24T13:45:08.853Z,3.03
2017-11-24T13:47:35.456Z,2.90
2017-11-24T13:50:01.731Z,3.03
2017-11-24T13:52:28.669Z,2.80
2017-11-24T13:54:54.821Z,2.67
2017-11-24T13:57:21.041Z,2.90
2017-11-24T13:59:47.354Z,2.80
2017-11-24T14:02:13.574Z,2.77
2017-11-24T14:04:39.699Z,2.53
2017-11-24T14:07:05.957Z,3.03
2017-11-24T14:09:32.088Z,3.13
2017-11-24T14:11:58.265Z,3.60
2017-11-24T14:14:24.629Z,2.60
2017-11-24T14:16:50.869Z,2.87
2017-11-24T14:19:17.123Z,2.87
2017-11-24T14:21:45.120Z,2.90
2017-11-24T14:24:11.403Z,2.97
2017-11-24T14:26:38.429Z,2.90
2017-11-24T14:29:04.684Z,2.93
2017-11-24T14:31:31.650Z,3.47
2017-11-24T14:33:57.862Z,3.00
2017-11-24T14:36:24.867Z,3.10
2017-11-24T14:38:51.117Z,2.87
2017-11-24T14:41:17.413Z,2.83
2017-11-24T14:43:43.585Z,2.63
2017-11-24T14:46:10.639Z,2.70
2017-11-24T14:48:37.616Z,2.80
2017-11-24T14:51:03.954Z,3.43
2017-11-24T14:53:30.232Z,2.33
2017-11-24T14:55:57.201Z,2.80
2017-11-24T14:58:23.405Z,2.97
2017-11-24T15:00:50.433Z,3.03
2017-11-24T15:03:16.707Z,3.23
2017-11-24T15:05:43.030Z,3.40
2017-11-24T15:08:09.398Z,3.30
2017-11-24T15:10:35.630Z,2.67
2017-11-24T15:13:01.803Z,3.20
2017-11-24T15:15:29.493Z,3.37
2017-11-24T15:17:55.687Z,2.50
2017-11-24T15:20:22.634Z,3.40
2017-11-24T15:22:49.617Z,2.40
2017-11-24T15:25:15.825Z,2.57
2017-11-24T15:27:42.047Z,2.80
2017-11-24T15:30:08.278Z,2.50
2017-11-24T15:32:34.552Z,3.07
2017-11-24T15:35:00.752Z,2.50
2017-11-24T15:37:26.906Z,2.53
2017-11-24T15:39:53.292Z,2.60
2017-11-24T15:42:19.533Z,3.07
2017-11-24T15:44:45.742Z,2.67
2017-11-24T15:47:12.058Z,3.13
2017-11-24T15:49:39.022Z,3.07
2017-11-24T15:52:05.268Z,2.80
2017-11-24T15:54:31.441Z,3.13
2017-11-24T15:56:58.490Z,2.90
2017-11-24T15:59:25.463Z,2.90
2017-11-24T16:01:51.676Z,2.87
2017-11-24T16:04:17.851Z,3.03
2017-11-24T16:06:44.067Z,2.40
2017-11-24T16:09:10.272Z,2.97
2017-11-24T16:11:36.486Z,2.83
2017-11-24T16:14:02.909Z,2.47
2017-11-24T16:16:29.915Z,3.17
2017-11-24T16:18:56.083Z,2.97
2017-11-24T16:21:23.047Z,3.30
2017-11-24T16:23:49.248Z,1.60
2017-11-24T16:26:16.295Z,1.80
2017-11-24T16:28:43.214Z,1.83
2017-11-24T16:31:09.512Z,1.73
2017-11-24T16:33:35.730Z,1.63
2017-11-24T16:36:01.954Z,1.23
2017-11-24T16:38:28.284Z,1.17
2017-11-24T16:40:54.496Z,1.83
2017-11-24T16:43:20.774Z,1.80
2017-11-24T16:45:46.957Z,1.97
2017-11-24T16:48:13.358Z,1.40
2017-11-24T16:50:39.848Z,0.70
2017-11-24T16:53:06.093Z,1.10
2017-11-24T16:55:32.441Z,0.60
2017-11-24T16:57:59.415Z,0.50
2017-11-24T17:00:25.654Z,0.87
2017-11-24T17:02:51.883Z,0.70
2017-11-24T17:05:18.097Z,0.87
2017-11-24T17:07:44.980Z,0.50
2017-11-24T17:10:11.171Z,0.47
2017-11-24T17:12:37.322Z,2.60
2017-11-24T17:15:04.391Z,4.07
2017-11-24T17:17:30.774Z,3.67
2017-11-24T17:19:56.924Z,2.70
2017-11-24T17:22:23.229Z,6.23
2017-11-24T17:24:49.531Z,6.33
2017-11-24T17:27:16.432Z,4.83
2017-11-24T17:29:42.696Z,3.70
2017-11-24T17:32:09.641Z,6.67
2017-11-24T17:34:36.717Z,3.93
2017-11-24T17:37:03.022Z,5.00
2017-11-24T17:39:29.956Z,5.83
2017-11-24T17:41:56.197Z,5.50
2017-11-24T17:44:22.378Z,6.70
2017-11-24T17:46:48.628Z,8.30
2017-11-24T17:49:14.931Z,8.23
2017-11-24T17:51:41.218Z,5.70
2017-11-24T17:54:07.452Z,3.90
2017-11-24T17:56:33.696Z,5.00
2017-11-24T17:58:59.902Z,4.60
2017-11-24T18:01:26.070Z,4.00
2017-11-24T18:03:52.378Z,5.43
2017-11-24T18:06:18.539Z,4.80
2017-11-24T18:08:44.721Z,3.57
2017-11-24T18:11:10.980Z,3.27
2017-11-24T18:13:37.166Z,3.87
2017-11-24T18:16:03.431Z,6.70
2017-11-24T18:18:29.608Z,3.97
2017-11-24T18:20:55.938Z,4.43
2017-11-24T18:23:22.212Z,2.20
2017-11-24T18:25:48.515Z,2.37
2017-11-24T18:28:14.795Z,2.77
2017-11-24T18:30:41.071Z,2.07
2017-11-24T18:33:07.352Z,14.20
2017-11-24T18:35:33.626Z,3.03
2017-11-24T18:37:59.794Z,2.10
2017-11-24T18:40:26.145Z,2.80
2017-11-24T18:42:53.127Z,2.10
2017-11-24T18:45:19.394Z,1.30
2017-11-24T18:47:45.780Z,2.40
2017-11-24T18:50:12.097Z,4.50
2017-11-24T18:52:39.151Z,10.00
2017-11-24T18:55:05.342Z,6.93
2017-11-24T18:57:31.556Z,6.30
2017-11-24T18:59:57.923Z,9.60
2017-11-24T19:02:25.012Z,5.63
2017-11-24T19:04:52.512Z,5.60
2017-11-24T19:07:20.334Z,6.37
2017-11-24T19:09:46.633Z,17.90
2017-11-24T19:12:12.851Z,18.93
2017-11-24T19:14:39.112Z,13.73
2017-11-24T19:17:05.358Z,13.53
2017-11-24T19:19:31.608Z,6.70
2017-11-24T19:21:57.852Z,8.43
2017-11-24T19:24:25.790Z,10.83
2017-11-24T19:26:52.114Z,11.70
2017-11-24T19:29:18.322Z,7.80
2017-11-24T19:31:45.299Z,7.03
2017-11-24T19:34:11.525Z,6.87
2017-11-24T19:36:37.715Z,6.27
2017-11-24T19:39:03.864Z,5.70
2017-11-24T19:41:30.120Z,6.23
2017-11-24T19:43:57.112Z,7.20
2017-11-24T19:46:23.363Z,9.27
2017-11-24T19:48:49.661Z,7.67
2017-11-24T19:51:15.911Z,6.73
2017-11-24T19:53:42.223Z,3.60
2017-11-24T19:56:08.537Z,3.70
2017-11-24T19:58:34.749Z,2.70
2017-11-24T20:01:00.937Z,2.50
2017-11-24T20:03:28.131Z,3.40
2017-11-24T20:05:54.308Z,3.53
2017-11-24T20:08:21.041Z,4.93
2017-11-24T20:10:47.307Z,6.07
2017-11-24T20:13:14.312Z,7.20
2017-11-24T20:15:40.587Z,7.67
2017-11-24T20:18:07.624Z,8.63
2017-11-24T20:20:34.595Z,6.63
2017-11-24T20:23:00.797Z,6.80
2017-11-24T20:25:27.772Z,9.20
2017-11-24T20:27:54.068Z,8.73
2017-11-24T20:30:21.047Z,9.13
2017-11-24T20:32:47.323Z,9.60
2017-11-24T20:35:13.477Z,11.40
2017-11-24T20:37:40.447Z,10.70
2017-11-24T20:40:06.747Z,11.97
2017-11-24T20:42:33.685Z,9.10
2017-11-24T20:45:00.597Z,10.23
2017-11-24T20:47:26.926Z,9.83
2017-11-24T20:49:53.989Z,15.00
2017-11-24T20:52:20.906Z,10.67
2017-11-24T20:54:47.141Z,8.90
2017-11-24T20:57:13.354Z,11.70
2017-11-24T20:59:39.680Z,12.13
2017-11-24T21:02:05.869Z,11.83
2017-11-24T21:04:32.181Z,11.30
2017-11-24T21:06:59.147Z,11.43
2017-11-24T21:09:25.443Z,11.90
2017-11-24T21:11:51.690Z,13.00
2017-11-24T21:14:18.035Z,12.47
2017-11-24T21:16:44.220Z,11.00
2017-11-24T21:19:10.545Z,11.60
2017-11-24T21:21:37.107Z,10.70
2017-11-24T21:24:04.023Z,11.13
2017-11-24T21:26:30.295Z,11.10
2017-11-24T21:28:56.706Z,10.23
2017-11-24T21:31:23.754Z,10.40
2017-11-24T21:33:50.802Z,9.80
2017-11-24T21:36:17.748Z,8.77
2017-11-24T21:38:44.636Z,10.00
2017-11-24T21:41:10.865Z,12.20
2017-11-24T21:43:37.009Z,16.47
2017-11-24T21:46:03.266Z,12.77
2017-11-24T21:48:29.420Z,12.10
2017-11-24T21:50:55.577Z,17.10
2017-11-24T21:53:22.164Z,12.43
2017-11-24T21:55:49.058Z,19.80
2017-11-24T21:58:15.259Z,18.97
2017-11-24T22:00:41.472Z,14.17
2017-11-24T22:03:07.623Z,11.00
2017-11-24T22:05:33.850Z,9.17
2017-11-24T22:08:00.150Z,10.90
2017-11-24T22:10:26.393Z,10.00
2017-11-24T22:12:52.722Z,11.40
2017-11-24T22:15:18.873Z,10.00
2017-11-24T22:17:45.089Z,9.97
2017-11-24T22:20:11.311Z,14.77
2017-11-24T22:22:37.583Z,12.67
2017-11-24T22:25:03.882Z,12.07
2017-11-24T22:27:30.138Z,13.90
2017-11-24T22:29:56.420Z,13.43
2017-11-24T22:32:22.781Z,11.70
2017-11-24T22:34:49.003Z,10.43
2017-11-24T22:37:15.217Z,14.30
2017-11-24T22:39:41.420Z,14.67
2017-11-24T22:42:07.622Z,14.90
2017-11-24T22:44:34.622Z,11.97
2017-11-24T22:47:00.785Z,14.70
2017-11-24T22:49:27.688Z,14.40
2017-11-24T22:51:53.923Z,13.20
2017-11-24T22:54:20.137Z,13.00
2017-11-24T22:56:46.283Z,13.10
2017-11-24T22:59:12.537Z,12.33
2017-11-24T23:01:38.722Z,12.37
2017-11-24T23:04:04.934Z,12.40
2017-11-24T23:06:31.230Z,11.00
2017-11-24T23:08:57.456Z,10.47
2017-11-24T23:11:23.708Z,10.37
2017-11-24T23:13:50.013Z,10.20
2017-11-24T23:16:16.145Z,11.27
2017-11-24T23:18:42.313Z,11.20
2017-11-24T23:21:08.597Z,10.97
2017-11-24T23:23:34.773Z,10.93
2017-11-24T23:26:00.932Z,9.80
2017-11-24T23:28:27.908Z,10.40
2017-11-24T23:30:54.064Z,12.10
2017-11-24T23:33:20.297Z,11.70
2017-11-24T23:35:46.595Z,12.07
2017-11-24T23:38:12.830Z,13.50
2017-11-24T23:40:39.023Z,10.27
2017-11-24T23:43:05.217Z,12.70
2017-11-24T23:45:31.423Z,12.87
2017-11-24T23:47:57.547Z,12.40
2017-11-24T23:50:23.735Z,11.63
2017-11-24T23:52:50.117Z,14.10
2017-11-24T23:55:16.303Z,12.87
2017-11-24T23:57:42.559Z,15.10
